createdAt,value
2023-02-05T00:01:36.413Z,100039.78
2023-02-05T00:04:04.091Z,100050.41
2023-02-05T00:06:31.139Z,100054.13
2023-02-05T00:08:58.791Z,100060.50
2023-02-05T00:11:26.453Z,100060.16
2023-02-05T00:13:54.063Z,100067.81
2023-02-05T00:16:25.927Z,100061.44
2023-02-05T00:18:53.818Z,100073.59
2023-02-05T00:21:23.056Z,100063.19
2023-02-05T00:23:50.124Z,100072.94
2023-02-05T00:26:17.570Z,100070.72
2023-02-05T00:28:44.932Z,100066.19
2023-02-05T00:31:15.433Z,100060.19
2023-02-05T00:33:42.443Z,100063.44
2023-02-05T00:36:14.660Z,100059.38
2023-02-05T00:38:45.894Z,100058.56
2023-02-05T00:41:13.595Z,100055.59
2023-02-05T00:43:41.319Z,100045.97
2023-02-05T00:46:08.593Z,100052.91
2023-02-05T00:48:35.510Z,100058.22
2023-02-05T00:51:02.234Z,100054.16
2023-02-05T00:53:29.302Z,100042.47
2023-02-05T00:55:56.226Z,100042.22
2023-02-05T00:58:23.323Z,100051.66
2023-02-05T01:00:53.505Z,100051.44
2023-02-05T01:03:20.956Z,100040.50
2023-02-05T01:05:47.901Z,100038.06
2023-02-05T01:08:15.139Z,100041.81
2023-02-05T01:10:47.195Z,100043.06
2023-02-05T01:13:17.675Z,100044.44
2023-02-05T01:15:45.096Z,100052.81
2023-02-05T01:18:12.535Z,100052.19
2023-02-05T01:20:42.842Z,100051.00
2023-02-05T01:23:10.726Z,100041.50
2023-02-05T01:25:38.388Z,100039.91
2023-02-05T01:28:08.727Z,100039.59
2023-02-05T01:30:36.016Z,100041.56
2023-02-05T01:33:07.688Z,100046.16
2023-02-05T01:35:34.884Z,100047.28
2023-02-05T01:38:02.428Z,100054.56
2023-02-05T01:40:29.401Z,100053.81
2023-02-05T01:42:56.015Z,100054.31
2023-02-05T01:45:22.720Z,100053.59
2023-02-05T01:47:51.294Z,100051.69
2023-02-05T01:50:28.319Z,100049.34
2023-02-05T01:52:59.538Z,100060.81
2023-02-05T01:55:28.114Z,100052.94
2023-02-05T01:58:01.034Z,100037.44
2023-02-05T02:00:27.757Z,100044.38
2023-02-05T02:02:54.892Z,100035.72
2023-02-05T02:05:22.056Z,100032.25
2023-02-05T02:07:49.414Z,100041.03
2023-02-05T02:10:18.934Z,100030.72
2023-02-05T02:12:50.425Z,100027.81
2023-02-05T02:15:22.785Z,100026.81
2023-02-05T02:17:57.694Z,100033.97
2023-02-05T02:20:37.199Z,100038.91
2023-02-05T02:23:39.135Z,100033.06
2023-02-05T02:26:40.741Z,100023.25
2023-02-05T02:29:11.023Z,100017.34
2023-02-05T02:31:46.699Z,100019.94
2023-02-05T02:34:30.368Z,100008.00
2023-02-05T02:37:06.612Z,100007.91
2023-02-05T02:39:55.054Z,100005.50
2023-02-05T02:42:36.464Z,100002.06
2023-02-05T02:45:08.783Z,99997.63
2023-02-05T02:47:41.114Z,100003.69
2023-02-05T02:50:35.838Z,99997.47
2023-02-05T02:53:10.626Z,99999.44
2023-02-05T02:55:43.688Z,99998.06
2023-02-05T02:58:24.586Z,99991.13
2023-02-05T03:00:56.184Z,99983.16
2023-02-05T03:03:26.593Z,99976.22
2023-02-05T03:05:56.910Z,99977.28
2023-02-05T03:08:26.438Z,99979.97
2023-02-05T03:11:04.432Z,99979.84
2023-02-05T03:13:32.256Z,99987.56
2023-02-05T03:16:02.016Z,99983.53
2023-02-05T03:18:30.177Z,99977.38
2023-02-05T03:21:03.901Z,99980.25
2023-02-05T03:23:31.321Z,99973.25
2023-02-05T03:25:58.661Z,99971.50
2023-02-05T03:28:38.524Z,99963.75
2023-02-05T03:31:20.564Z,99966.34
2023-02-05T03:34:01.683Z,99965.50
2023-02-05T03:36:41.929Z,99963.84
2023-02-05T03:39:42.083Z,99967.38
2023-02-05T03:42:20.801Z,99970.00
2023-02-05T03:45:00.411Z,99975.22
2023-02-05T03:47:51.239Z,99981.50
2023-02-05T03:50:43.240Z,99977.88
2023-02-05T03:53:33.527Z,99985.84
2023-02-05T03:56:07.712Z,99972.06
2023-02-05T03:58:40.405Z,99979.78
2023-02-05T04:01:11.529Z,99991.22
2023-02-05T04:03:45.131Z,99982.56
2023-02-05T04:06:12.824Z,99985.78
2023-02-05T04:08:40.294Z,99983.13
2023-02-05T04:11:09.507Z,99980.50
2023-02-05T04:13:37.191Z,99987.66
2023-02-05T04:16:05.828Z,99994.53
2023-02-05T04:18:32.859Z,99984.94
2023-02-05T04:21:02.986Z,99991.91
2023-02-05T04:23:31.759Z,99977.09
2023-02-05T04:25:58.892Z,99971.88
2023-02-05T04:28:33.009Z,99977.88
2023-02-05T04:31:02.556Z,99984.91
2023-02-05T04:33:33.296Z,99995.31
2023-02-05T04:36:00.733Z,99996.34
2023-02-05T04:38:28.359Z,100017.34
2023-02-05T04:40:55.874Z,100019.94
2023-02-05T04:43:23.349Z,100012.16
2023-02-05T04:45:50.433Z,100012.06
2023-02-05T04:48:17.863Z,100011.09
2023-02-05T04:50:44.652Z,100005.88
2023-02-05T04:53:11.530Z,100004.09
2023-02-05T04:55:41.513Z,100011.03
2023-02-05T04:58:08.309Z,100010.09
2023-02-05T05:00:37.482Z,100008.31
2023-02-05T05:03:09.549Z,100013.63
2023-02-05T05:05:37.079Z,100024.28
2023-02-05T05:08:04.161Z,100026.06
2023-02-05T05:10:31.201Z,100027.81
2023-02-05T05:12:57.943Z,100036.34
2023-02-05T05:15:24.927Z,100035.38
2023-02-05T05:17:51.653Z,100040.63
2023-02-05T05:20:23.712Z,100031.13
2023-02-05T05:22:51.652Z,100031.13
2023-02-05T05:25:21.389Z,100025.06
2023-02-05T05:27:51.113Z,100029.41
2023-02-05T05:30:18.194Z,100019.84
2023-02-05T05:32:44.950Z,100028.44
2023-02-05T05:35:11.628Z,100021.47
2023-02-05T05:37:38.293Z,100014.63
2023-02-05T05:40:24.268Z,100032.91
2023-02-05T05:43:09.856Z,100039.00
2023-02-05T05:45:42.223Z,100036.41
2023-02-05T05:48:09.409Z,100023.44
2023-02-05T05:50:41.351Z,100037.28
2023-02-05T05:53:08.010Z,100035.56
2023-02-05T05:55:35.124Z,100041.69
2023-02-05T05:58:01.897Z,100043.41
2023-02-05T06:00:28.768Z,100036.44
2023-02-05T06:02:55.556Z,100042.47
2023-02-05T06:05:23.285Z,100039.91
2023-02-05T06:07:49.984Z,100045.94
2023-02-05T06:10:17.277Z,100042.53
2023-02-05T06:12:46.626Z,100052.94
2023-02-05T06:15:13.528Z,100046.00
2023-02-05T06:17:40.292Z,100039.91
2023-02-05T06:20:07.729Z,100041.66
2023-02-05T06:22:35.070Z,100044.28
2023-02-05T06:25:02.542Z,100046.91
2023-02-05T06:27:29.381Z,100051.22
2023-02-05T06:29:56.441Z,100043.41
2023-02-05T06:32:26.488Z,100046.00
2023-02-05T06:34:58.933Z,100050.38
2023-02-05T06:37:34.182Z,100049.50
2023-02-05T06:40:13.135Z,100045.16
2023-02-05T06:42:40.195Z,100056.44
2023-02-05T06:45:10.317Z,100060.75
2023-02-05T06:47:40.523Z,100052.94
2023-02-05T06:50:10.685Z,100060.72
2023-02-05T06:52:37.527Z,100058.16
2023-02-05T06:55:07.500Z,100063.34
2023-02-05T06:57:34.969Z,100058.16
2023-02-05T07:00:02.070Z,100062.47
2023-02-05T07:02:28.892Z,100073.75
2023-02-05T07:04:55.881Z,100067.59
2023-02-05T07:07:22.861Z,100076.28
2023-02-05T07:09:49.818Z,100064.03
2023-02-05T07:12:19.548Z,100071.88
2023-02-05T07:14:49.100Z,100075.47
2023-02-05T07:17:21.097Z,100071.06
2023-02-05T07:19:48.226Z,100071.97
2023-02-05T07:22:15.622Z,100066.78
2023-02-05T07:24:42.778Z,100064.16
2023-02-05T07:27:09.568Z,100063.31
2023-02-05T07:29:36.582Z,100072.88
2023-02-05T07:32:03.352Z,100068.41
2023-02-05T07:34:30.828Z,100071.81
2023-02-05T07:36:58.355Z,100069.41
2023-02-05T07:39:25.451Z,100067.47
2023-02-05T07:41:53.892Z,100069.22
2023-02-05T07:44:36.025Z,100070.16
2023-02-05T07:47:03.174Z,100068.50
2023-02-05T07:49:31.402Z,100068.38
2023-02-05T07:51:59.825Z,100066.63
2023-02-05T07:54:32.884Z,100071.53
2023-02-05T07:57:01.627Z,100067.97
2023-02-05T07:59:28.518Z,100066.72
2023-02-05T08:01:55.327Z,100069.78
2023-02-05T08:04:22.210Z,100063.91
2023-02-05T08:06:52.412Z,100068.69
2023-02-05T08:09:22.544Z,100072.13
2023-02-05T08:11:52.044Z,100069.28
2023-02-05T08:14:19.748Z,100070.06
2023-02-05T08:16:46.492Z,100066.38
2023-02-05T08:19:18.139Z,100067.25
2023-02-05T08:21:48.137Z,100071.06
2023-02-05T08:24:15.497Z,100077.13
2023-02-05T08:26:42.318Z,100071.97
2023-02-05T08:29:10.631Z,100069.13
2023-02-05T08:31:40.978Z,100065.75
2023-02-05T08:34:08.142Z,100064.22
2023-02-05T08:36:40.038Z,100056.97
2023-02-05T08:39:07.114Z,100060.69
2023-02-05T08:41:34.128Z,100064.03
2023-02-05T08:44:00.931Z,100052.94
2023-02-05T08:46:33.885Z,100043.41
2023-02-05T08:49:13.912Z,100049.69
2023-02-05T08:51:40.842Z,100025.59
2023-02-05T08:54:12.970Z,100038.34
2023-02-05T08:56:40.906Z,100036.19
2023-02-05T08:59:12.475Z,100028.78
2023-02-05T09:01:43.052Z,100034.19
2023-02-05T09:04:22.290Z,100037.91
2023-02-05T09:06:50.225Z,100023.41
2023-02-05T09:09:17.516Z,100023.78
2023-02-05T09:11:46.681Z,100028.88
2023-02-05T09:14:14.537Z,100026.25
2023-02-05T09:16:41.605Z,100024.41
2023-02-05T09:19:11.310Z,100025.25
2023-02-05T09:21:38.189Z,100018.16
2023-02-05T09:24:07.887Z,100019.31
2023-02-05T09:26:35.029Z,100018.34
2023-02-05T09:29:01.797Z,100012.03
2023-02-05T09:31:31.200Z,100003.59
2023-02-05T09:34:04.169Z,100005.84
2023-02-05T09:36:31.025Z,99999.75
2023-02-05T09:39:13.450Z,100000.41
2023-02-05T09:41:59.536Z,100004.00
2023-02-05T09:44:26.563Z,100002.72
2023-02-05T09:47:23.175Z,99992.88
2023-02-05T09:49:52.752Z,99993.84
2023-02-05T09:52:42.161Z,99995.75
2023-02-05T09:55:20.817Z,99992.19
2023-02-05T09:57:54.356Z,99984.22
2023-02-05T10:00:32.903Z,99974.84
2023-02-05T10:03:05.748Z,99975.75
2023-02-05T10:05:45.051Z,99972.75
2023-02-05T10:08:49.027Z,99976.34
2023-02-05T10:11:33.115Z,99964.72
2023-02-05T10:14:34.929Z,99951.41
2023-02-05T10:17:21.114Z,99965.81
2023-02-05T10:19:57.087Z,99960.25
2023-02-05T10:23:07.130Z,99958.25
2023-02-05T10:25:47.590Z,99961.72
2023-02-05T10:28:27.086Z,99959.63
2023-02-05T10:31:19.130Z,99956.19
2023-02-05T10:33:51.494Z,99948.81
2023-02-05T10:36:26.320Z,99950.66
2023-02-05T10:38:56.197Z,99963.13
2023-02-05T10:41:32.448Z,99954.84
2023-02-05T10:44:32.928Z,99955.50
2023-02-05T10:47:25.171Z,99953.53
2023-02-05T10:50:03.163Z,99949.94
2023-02-05T10:52:31.540Z,99952.84
2023-02-05T10:54:58.525Z,99951.44
2023-02-05T10:57:34.429Z,99943.31
2023-02-05T11:00:22.547Z,99946.97
2023-02-05T11:03:00.995Z,99935.53
2023-02-05T11:05:38.989Z,99917.84
2023-02-05T11:08:26.011Z,99916.25
2023-02-05T11:10:53.697Z,99914.72
2023-02-05T11:13:21.996Z,99914.09
2023-02-05T11:15:57.915Z,99907.19
2023-02-05T11:18:36.048Z,99913.81
2023-02-05T11:21:04.928Z,99913.34
2023-02-05T11:23:39.805Z,99915.81
2023-02-05T11:26:24.946Z,99912.25
2023-02-05T11:28:52.770Z,99913.28
2023-02-05T11:31:36.185Z,99915.00
2023-02-05T11:34:11.460Z,99910.88
2023-02-05T11:36:54.708Z,99912.16
2023-02-05T11:39:39.820Z,99898.50
2023-02-05T11:42:30.554Z,99899.69
2023-02-05T11:45:00.564Z,99893.72
2023-02-05T11:47:33.408Z,99889.34
2023-02-05T11:50:01.189Z,99897.41
2023-02-05T11:52:32.992Z,99902.50
2023-02-05T11:55:03.177Z,99900.84
2023-02-05T11:57:35.351Z,99906.97
2023-02-05T12:00:22.894Z,99904.66
2023-02-05T12:03:04.016Z,99900.16
2023-02-05T12:05:43.105Z,99900.44
2023-02-05T12:08:18.396Z,99900.06
2023-02-05T12:10:51.610Z,99904.97
2023-02-05T12:13:27.716Z,99899.34
2023-02-05T12:16:04.592Z,99906.34
2023-02-05T12:18:57.479Z,99907.19
2023-02-05T12:21:34.788Z,99910.50
2023-02-05T12:24:26.324Z,99903.59
2023-02-05T12:27:03.132Z,99900.63
2023-02-05T12:29:54.459Z,99901.28
2023-02-05T12:33:02.265Z,99905.41
2023-02-05T12:35:53.604Z,99893.28
2023-02-05T12:38:32.076Z,99888.88
2023-02-05T12:41:14.344Z,99890.13
2023-02-05T12:43:49.119Z,99885.19
2023-02-05T12:46:34.749Z,99884.06
2023-02-05T12:49:05.474Z,99882.78
2023-02-05T12:51:40.979Z,99885.03
2023-02-05T12:54:24.833Z,99874.53
2023-02-05T12:56:59.083Z,99882.09
2023-02-05T12:59:38.177Z,99869.44
2023-02-05T13:02:05.717Z,99871.81
2023-02-05T13:04:46.830Z,99862.44
2023-02-05T13:07:41.476Z,99857.63
2023-02-05T13:10:23.885Z,99852.44
2023-02-05T13:13:02.446Z,99858.09
2023-02-05T13:15:36.898Z,99854.53
2023-02-05T13:18:31.108Z,99858.81
2023-02-05T13:21:26.483Z,99868.19
2023-02-05T13:24:22.247Z,99866.09
2023-02-05T13:27:08.016Z,99865.59
2023-02-05T13:29:46.572Z,99861.91
2023-02-05T13:32:16.788Z,99858.56
2023-02-05T13:34:44.011Z,99854.94
2023-02-05T13:37:30.567Z,99846.72
2023-02-05T13:40:03.021Z,99855.13
2023-02-05T13:42:54.702Z,99863.31
2023-02-05T13:45:37.848Z,99858.94
2023-02-05T13:48:12.714Z,99848.19
2023-02-05T13:51:24.806Z,99848.56
2023-02-05T13:54:25.870Z,99845.50
2023-02-05T13:57:18.788Z,99847.69
2023-02-05T13:59:54.802Z,99846.41
2023-02-05T14:02:38.721Z,99844.50
2023-02-05T14:05:07.577Z,99851.75
2023-02-05T14:07:49.194Z,99856.72
2023-02-05T14:10:30.608Z,99851.63
2023-02-05T14:13:15.122Z,99849.41
2023-02-05T14:15:43.424Z,99849.91
2023-02-05T14:18:16.333Z,99850.31
2023-02-05T14:20:45.750Z,99855.06
2023-02-05T14:23:15.100Z,99858.59
2023-02-05T14:25:42.845Z,99855.69
2023-02-05T14:28:15.812Z,99851.19
2023-02-05T14:30:51.478Z,99852.72
2023-02-05T14:33:35.826Z,99859.22
2023-02-05T14:36:22.692Z,99855.34
2023-02-05T14:39:01.222Z,99846.94
2023-02-05T14:41:50.995Z,99859.53
2023-02-05T14:44:20.587Z,99852.16
2023-02-05T14:47:05.454Z,99855.50
2023-02-05T14:49:36.682Z,99855.81
2023-02-05T14:52:09.449Z,99865.44
2023-02-05T14:54:49.644Z,99868.69
2023-02-05T14:57:27.228Z,99873.28
2023-02-05T15:00:19.542Z,99868.91
2023-02-05T15:02:55.679Z,99877.44
2023-02-05T15:05:44.447Z,99880.88
2023-02-05T15:08:17.276Z,99880.28
2023-02-05T15:11:09.379Z,99880.66
2023-02-05T15:13:36.278Z,99886.94
2023-02-05T15:16:20.534Z,99876.31
2023-02-05T15:18:50.926Z,99868.88
2023-02-05T15:21:27.461Z,99864.31
2023-02-05T15:24:25.266Z,99861.53
2023-02-05T15:31:03.006Z,99858.56
2023-02-05T15:34:35.598Z,99858.81
2023-02-05T15:37:52.967Z,99870.69
2023-02-05T15:40:34.870Z,99873.88
2023-02-05T15:43:28.397Z,99888.00
2023-02-05T15:46:06.261Z,99895.78
2023-02-05T15:48:43.105Z,99900.84
2023-02-05T15:51:49.000Z,99904.09
2023-02-05T15:54:21.142Z,99916.91
2023-02-05T15:57:46.405Z,99914.47
2023-02-05T16:00:30.037Z,99917.22
2023-02-05T16:03:01.360Z,99919.06
2023-02-05T16:05:32.121Z,99920.56
2023-02-05T16:08:21.607Z,99925.09
2023-02-05T16:11:59.309Z,99933.66
2023-02-05T16:15:25.729Z,99929.44
2023-02-05T16:18:18.716Z,99931.31
2023-02-05T16:20:54.389Z,99931.31
2023-02-05T16:23:34.135Z,99940.88
2023-02-05T16:26:17.778Z,99946.69
2023-02-05T16:29:39.047Z,99959.22
2023-02-05T16:32:30.796Z,99950.09
2023-02-05T16:35:03.628Z,99948.19
2023-02-05T16:37:33.637Z,99940.28
2023-02-05T16:40:08.918Z,99939.41
2023-02-05T16:42:46.327Z,99931.81
2023-02-05T16:45:14.829Z,99936.91
2023-02-05T16:47:42.470Z,99927.94
2023-02-05T16:50:41.321Z,99927.72
2023-02-05T16:53:21.381Z,99931.53
2023-02-05T16:55:59.370Z,99927.28
2023-02-05T16:58:32.403Z,99931.56
2023-02-05T17:01:01.914Z,99935.31
2023-02-05T17:03:38.088Z,99947.50
2023-02-05T17:06:17.913Z,99950.25
2023-02-05T17:08:55.321Z,99952.00
2023-02-05T17:11:37.885Z,99954.91
2023-02-05T17:14:23.792Z,99957.25
2023-02-05T17:17:27.890Z,99948.13
2023-02-05T17:20:15.985Z,99958.19
2023-02-05T17:23:12.551Z,99953.97
2023-02-05T17:26:12.089Z,99949.63
2023-02-05T17:28:43.873Z,99945.50
2023-02-05T17:31:14.241Z,99951.59
2023-02-05T17:33:43.705Z,99957.19
2023-02-05T17:37:45.122Z,99962.66
2023-02-05T17:40:24.152Z,99952.97
2023-02-05T17:43:00.410Z,99965.38
2023-02-05T17:45:44.818Z,99954.19
2023-02-05T18:13:06.765Z,99965.13
2023-02-05T18:23:51.964Z,99969.16
2023-02-05T18:33:16.983Z,99952.78
2023-02-05T18:41:58.455Z,99959.09
2023-02-05T18:44:28.792Z,99940.41
2023-02-05T18:47:01.641Z,99961.94
2023-02-05T18:49:33.261Z,99933.50
2023-02-05T18:52:08.132Z,99949.81
2023-02-05T18:54:36.612Z,99952.38
2023-02-05T18:57:41.792Z,99943.84
2023-02-05T19:00:10.547Z,99940.41
2023-02-05T19:02:46.107Z,99931.06
2023-02-05T19:05:14.625Z,99952.03
2023-02-05T19:10:52.582Z,99920.28
2023-02-05T19:13:20.323Z,99942.63
2023-02-05T19:15:58.088Z,99925.56
2023-02-05T19:18:34.631Z,99892.56
2023-02-05T19:21:13.150Z,99941.09
2023-02-05T19:23:58.011Z,99946.44
2023-02-05T19:27:19.143Z,99969.69
2023-02-05T19:29:55.194Z,99914.63
2023-02-05T19:36:37.866Z,99995.44
2023-02-05T19:47:06.498Z,99978.25
2023-02-05T19:50:50.993Z,100018.09
2023-02-05T19:56:56.948Z,100028.75
2023-02-05T19:59:26.129Z,100033.94
2023-02-05T20:01:54.115Z,100030.47
2023-02-05T20:04:24.975Z,100020.88
2023-02-05T20:06:56.953Z,100021.94
2023-02-05T20:09:24.476Z,100021.13
2023-02-05T20:11:55.476Z,100028.78
2023-02-05T20:14:23.514Z,100034.16
2023-02-05T20:16:51.887Z,100037.56
2023-02-05T20:19:19.776Z,100043.75
2023-02-05T20:21:47.992Z,100046.25
2023-02-05T20:24:16.466Z,100050.59
2023-02-05T20:26:44.267Z,100046.34
2023-02-05T20:29:30.083Z,100054.13
2023-02-05T20:31:58.378Z,100066.25
2023-02-05T20:34:30.372Z,100077.59
2023-02-05T20:37:04.300Z,100075.91
2023-02-05T20:39:33.419Z,100063.78
2023-02-05T20:42:01.952Z,100072.47
2023-02-05T20:44:30.340Z,100064.72
2023-02-05T20:46:57.088Z,100065.56
2023-02-05T20:49:24.241Z,100068.22
2023-02-05T20:51:52.948Z,100077.91
2023-02-05T20:54:20.311Z,100077.84
2023-02-05T20:56:50.371Z,100078.72
2023-02-05T20:59:17.101Z,100086.53
2023-02-05T21:01:43.980Z,100072.59
2023-02-05T21:04:10.883Z,100071.69
2023-02-05T21:06:40.201Z,100072.66
2023-02-05T21:09:08.500Z,100070.06
2023-02-05T21:11:35.841Z,100068.28
2023-02-05T21:14:03.710Z,100073.53
2023-02-05T21:16:30.881Z,100080.50
2023-02-05T21:18:57.925Z,100077.03
2023-02-05T21:21:26.584Z,100070.06
2023-02-05T21:23:59.104Z,100083.09
2023-02-05T21:26:28.864Z,100071.88
2023-02-05T21:29:00.839Z,100076.25
2023-02-05T21:31:36.129Z,100080.53
2023-02-05T21:34:04.934Z,100095.28
2023-02-05T21:36:32.273Z,100092.66
2023-02-05T21:38:59.969Z,100088.31
2023-02-05T21:41:27.145Z,100088.41
2023-02-05T21:43:59.456Z,100090.16
2023-02-05T21:46:29.421Z,100081.44
2023-02-05T21:48:57.801Z,100082.34
2023-02-05T21:51:27.574Z,100084.13
2023-02-05T21:53:57.262Z,100085.00
2023-02-05T21:56:25.938Z,100085.84
2023-02-05T21:58:52.852Z,100084.06
2023-02-05T22:01:25.330Z,100095.25
2023-02-05T22:03:54.697Z,100105.72
2023-02-05T22:06:22.636Z,100105.78
2023-02-05T22:08:51.601Z,100105.75
2023-02-05T22:11:20.858Z,100102.31
2023-02-05T22:13:50.200Z,100110.16
2023-02-05T22:16:22.652Z,100107.50
2023-02-05T22:18:50.038Z,100114.47
2023-02-05T22:21:16.657Z,100122.28
2023-02-05T22:23:45.286Z,100118.75
2023-02-05T22:26:12.244Z,100123.97
2023-02-05T22:28:39.000Z,100130.94
2023-02-05T22:31:11.657Z,100121.38
2023-02-05T22:33:40.196Z,100113.59
2023-02-05T22:36:08.913Z,100122.25
2023-02-05T22:38:38.333Z,100118.81
2023-02-05T22:41:08.810Z,100121.41
2023-02-05T22:43:35.588Z,100121.41
2023-02-05T22:46:11.761Z,100118.84
2023-02-05T22:48:41.653Z,100124.91
2023-02-05T22:51:11.062Z,100140.53
2023-02-05T22:53:37.940Z,100138.81
2023-02-05T22:56:10.733Z,100152.69
2023-02-05T22:58:45.194Z,100148.34
2023-02-05T23:01:16.698Z,100137.91
2023-02-05T23:03:43.926Z,100138.81
2023-02-05T23:06:12.709Z,100139.66
2023-02-05T23:08:39.534Z,100141.41
2023-02-05T23:11:08.645Z,100155.28
2023-02-05T23:13:35.848Z,100152.63
2023-02-05T23:16:11.085Z,100144.88
2023-02-05T23:18:39.869Z,100145.72
2023-02-05T23:21:12.139Z,100141.41
2023-02-05T23:23:38.879Z,100151.81
2023-02-05T23:26:32.988Z,100163.09
2023-02-05T23:29:00.142Z,100163.09
2023-02-05T23:31:27.605Z,100155.25
2023-02-05T23:33:55.156Z,100156.13
2023-02-05T23:36:21.923Z,100143.97
2023-02-05T23:38:49.085Z,100150.91
2023-02-05T23:41:35.514Z,100147.44
2023-02-05T23:44:13.195Z,100155.22
2023-02-05T23:46:41.624Z,100140.50
2023-02-05T23:49:09.256Z,100151.75
2023-02-05T23:51:36.004Z,100148.31
2023-02-05T23:54:03.416Z,100143.09
2023-02-05T23:56:30.147Z,100143.06
2023-02-05T23:58:57.426Z,100143.91
